Loudon, New Hampshire
Current Conditions -  °F | °C
As of 1:51 AM on Monday 24 Nov 2014 (Local Time) from KCON Reporting Station
Clear Clear  
Wind Chill:   Ceiling: Unl
Heat Index:   Visibility: 7mi
Dew Point:   Wind: 0mph
Humidity: 96%   Direction: NA
Pressure: 30.04"   Gusts: NA
Location:  43.18°N, 71.56°W
Report Text: KCON 240651Z AUTO 00000KT 7SM CLR 02/01 A3004 RMK AO2 SLP175 T00170011
Loading
Personal Weather Stations






























Interactive Weather Map New forecast layout! Learn more

10-Day Weather Forecast

Advertisements
Track Severe Weather on mobile